Time;durP1;ratioP1;P1;durP2;ratioP2;P2;SDS_P1;SDS_P2;PMS_P1;PMS_P2;Temp;Humidity;BMP_temperature;BMP_pressure;BME280_temperature;BME280_humidity;BME280_pressure;Samples;Min_cycle;Max_cycle;Signal;HPM_P1;HPM_P2
2022/04/14 00:01:33;;;;;;;13.73;10.10;;;15.50;60.40;;;;;;5032145;28;20125;-71
2022/04/14 00:03:58;;;;;;;14.95;8.63;;;15.50;60.50;;;;;;5031507;28;20113;-72
2022/04/14 00:06:23;;;;;;;14.48;8.52;;;15.50;60.60;;;;;;5028843;28;20030;-72
2022/04/14 00:08:52;;;;;;;11.32;8.65;;;15.40;60.70;;;;;;5031039;28;20052;-72
2022/04/14 00:11:17;;;;;;;11.25;8.50;;;15.40;60.90;;;;;;5006461;28;20034;-72
2022/04/14 00:13:43;;;;;;;10.77;8.32;;;15.40;60.90;;;;;;5036894;28;20028;-71
2022/04/14 00:16:08;;;;;;;10.52;8.70;;;15.30;60.90;;;;;;5049014;28;20065;-71
2022/04/14 00:18:34;;;;;;;12.30;7.90;;;15.30;61.00;;;;;;5033435;28;20130;-71
2022/04/14 00:20:59;;;;;;;14.35;8.55;;;15.30;61.00;;;;;;5032916;28;20028;-71
2022/04/14 00:23:25;;;;;;;11.10;8.07;;;15.30;61.10;;;;;;5020278;28;20033;-71
2022/04/14 00:25:51;;;;;;;14.25;9.23;;;15.30;61.20;;;;;;5024235;28;20026;-71
2022/04/14 00:28:17;;;;;;;13.00;8.60;;;15.30;61.40;;;;;;5032274;28;20056;-71
2022/04/14 00:30:42;;;;;;;12.38;8.82;;;15.20;61.40;;;;;;5042129;28;20060;-71
2022/04/14 00:33:08;;;;;;;11.55;8.57;;;15.20;61.50;;;;;;5032639;28;20045;-70
2022/04/14 00:35:33;;;;;;;13.50;8.60;;;15.20;61.70;;;;;;5032370;28;20120;-71
2022/04/14 00:37:59;;;;;;;13.63;8.15;;;15.20;61.80;;;;;;5032157;28;20564;-70
2022/04/14 00:40:25;;;;;;;10.95;7.80;;;15.10;61.80;;;;;;5042153;28;20032;-70
2022/04/14 00:42:50;;;;;;;12.57;8.52;;;15.10;62.00;;;;;;5031296;28;20030;-71
2022/04/14 00:45:16;;;;;;;12.02;8.55;;;15.10;62.10;;;;;;5047221;28;20037;-71
2022/04/14 00:47:41;;;;;;;13.02;8.80;;;15.00;62.20;;;;;;5035512;28;20487;-71
2022/04/14 00:50:08;;;;;;;11.70;8.27;;;15.00;62.40;;;;;;5042234;28;20498;-70
2022/04/14 00:52:33;;;;;;;12.20;8.45;;;15.00;62.50;;;;;;5036382;28;20032;-70
2022/04/14 00:54:59;;;;;;;11.43;8.23;;;15.00;62.50;;;;;;5053087;28;20357;-70
2022/04/14 00:57:25;;;;;;;11.05;8.77;;;14.90;62.60;;;;;;5037665;28;20526;-70
2022/04/14 00:59:50;;;;;;;11.15;8.23;;;14.90;62.80;;;;;;5032915;28;20052;-71
2022/04/14 01:02:16;;;;;;;13.27;9.38;;;14.90;62.90;;;;;;5033321;28;20045;-70
2022/04/14 01:04:42;;;;;;;14.50;8.60;;;14.90;63.00;;;;;;5052779;28;20035;-70
2022/04/14 01:07:08;;;;;;;11.93;8.52;;;14.80;63.00;;;;;;5037853;28;20029;-71
2022/04/14 01:09:36;;;;;;;13.88;10.02;;;14.80;63.10;;;;;;5052887;28;20032;-70
2022/04/14 01:12:01;;;;;;;12.48;8.63;;;14.80;63.20;;;;;;5022510;28;20026;-70
2022/04/14 01:14:35;;;;;;;10.77;8.25;;;14.70;63.50;;;;;;5025046;28;20550;-70
2022/04/14 01:17:06;;;;;;;14.85;10.07;;;14.70;63.70;;;;;;5026799;28;20036;-70
2022/04/14 01:19:32;;;;;;;12.10;8.95;;;14.70;63.70;;;;;;5030260;28;20036;-70
2022/04/14 01:22:16;;;;;;;11.57;8.70;;;14.70;63.70;;;;;;5031330;28;20388;-71
2022/04/14 01:24:42;;;;;;;12.40;9.80;;;14.70;63.80;;;;;;5017302;28;20030;-71
2022/04/14 01:27:08;;;;;;;11.25;8.73;;;14.60;63.70;;;;;;5019428;28;20583;-70
2022/04/14 01:29:34;;;;;;;14.18;10.10;;;14.60;64.00;;;;;;5028448;28;20120;-70
2022/04/14 01:32:03;;;;;;;11.05;8.50;;;14.60;64.10;;;;;;5030662;28;20063;-70
2022/04/14 01:34:30;;;;;;;13.60;8.15;;;14.60;64.10;;;;;;5031455;28;20087;-70
2022/04/14 01:36:56;;;;;;;11.77;7.75;;;14.60;64.30;;;;;;5031172;28;20034;-70
2022/04/14 01:39:23;;;;;;;10.43;8.07;;;14.60;64.50;;;;;;5035636;28;20029;-71
2022/04/14 01:41:48;;;;;;;12.90;8.85;;;14.50;64.40;;;;;;5031015;28;20036;-70
2022/04/14 01:44:14;;;;;;;12.15;9.15;;;14.50;64.60;;;;;;5045352;28;20028;-70
2022/04/14 01:46:41;;;;;;;12.63;9.07;;;14.50;64.60;;;;;;5029301;28;20037;-70
2022/04/14 01:49:10;;;;;;;12.32;8.73;;;14.50;64.70;;;;;;5032204;28;20021;-70
2022/04/14 01:51:36;;;;;;;10.88;8.02;;;14.40;64.70;;;;;;5030766;28;20037;-70
2022/04/14 01:54:03;;;;;;;11.90;8.95;;;14.40;64.70;;;;;;5034309;28;20033;-70
2022/04/14 01:56:28;;;;;;;12.60;9.15;;;14.40;64.90;;;;;;5040493;28;20427;-70
2022/04/14 01:58:54;;;;;;;15.05;9.30;;;14.40;65.20;;;;;;5024396;28;20022;-70
2022/04/14 02:01:20;;;;;;;13.48;9.23;;;14.40;65.10;;;;;;5029820;28;20045;-70
2022/04/14 02:03:46;;;;;;;11.55;8.57;;;14.30;65.40;;;;;;5036047;28;20021;-72
2022/04/14 02:06:12;;;;;;;14.75;9.70;;;14.30;65.70;;;;;;5032125;28;20033;-70
2022/04/14 02:08:37;;;;;;;13.80;10.10;;;14.30;65.80;;;;;;5036626;28;20041;-70
2022/04/14 02:11:03;;;;;;;13.25;8.90;;;14.30;65.90;;;;;;5035812;28;20037;-71
2022/04/14 02:13:30;;;;;;;13.38;8.73;;;14.30;65.70;;;;;;5041604;28;20075;-71
2022/04/14 02:15:56;;;;;;;14.75;9.43;;;14.30;65.80;;;;;;5037933;28;20380;-69
2022/04/14 02:18:21;;;;;;;13.30;8.63;;;14.20;65.90;;;;;;5039468;28;20025;-70
2022/04/14 02:20:47;;;;;;;13.07;7.75;;;14.20;66.00;;;;;;5039321;28;20032;-70
2022/04/14 02:23:12;;;;;;;10.30;8.82;;;14.20;66.20;;;;;;5030056;28;20034;-70
2022/04/14 02:25:38;;;;;;;12.95;8.18;;;14.20;66.10;;;;;;5033430;28;20037;-70
2022/04/14 02:28:03;;;;;;;13.77;10.02;;;14.20;66.20;;;;;;5034867;28;20029;-70
2022/04/14 02:30:29;;;;;;;11.55;9.15;;;14.20;66.40;;;;;;5018744;28;20483;-70
2022/04/14 02:32:54;;;;;;;11.30;8.80;;;14.20;66.40;;;;;;5029359;28;20057;-71
2022/04/14 02:35:20;;;;;;;11.88;8.18;;;14.20;66.50;;;;;;5030472;28;20472;-71
2022/04/14 02:37:45;;;;;;;13.32;8.55;;;14.20;66.60;;;;;;5036108;28;20029;-71
2022/04/14 02:40:11;;;;;;;14.88;9.23;;;14.10;66.80;;;;;;5030817;28;20136;-70
2022/04/14 02:42:37;;;;;;;13.60;10.05;;;14.10;66.90;;;;;;5035968;28;20485;-71
2022/04/14 02:45:03;;;;;;;12.65;9.48;;;14.10;67.00;;;;;;5031479;28;20025;-71
2022/04/14 02:47:29;;;;;;;14.63;10.05;;;14.10;67.00;;;;;;5015441;28;20025;-71
2022/04/14 02:49:55;;;;;;;13.07;9.48;;;14.20;66.90;;;;;;5029771;28;20065;-71
2022/04/14 02:52:20;;;;;;;12.82;8.77;;;14.20;67.10;;;;;;5029308;28;20068;-71
2022/04/14 02:54:46;;;;;;;12.27;8.98;;;14.20;67.20;;;;;;5031418;28;20029;-71
2022/04/14 02:57:11;;;;;;;16.45;9.95;;;14.20;67.30;;;;;;5026159;28;20032;-70
2022/04/14 02:59:37;;;;;;;12.93;9.10;;;14.20;67.30;;;;;;5021638;28;20048;-70
2022/04/14 03:02:03;;;;;;;12.93;9.30;;;14.20;67.40;;;;;;5038919;28;20109;-70
2022/04/14 03:04:30;;;;;;;14.68;10.32;;;14.20;67.50;;;;;;5031068;28;20037;-70
2022/04/14 03:06:56;;;;;;;13.35;9.82;;;14.10;67.40;;;;;;5029101;28;20037;-70
2022/04/14 03:09:22;;;;;;;12.60;9.20;;;14.20;67.60;;;;;;5030463;28;20033;-70
2022/04/14 03:11:47;;;;;;;13.02;8.73;;;14.20;67.80;;;;;;5035229;28;20522;-70
2022/04/14 03:14:13;;;;;;;12.60;9.13;;;14.20;67.90;;;;;;5032008;28;20387;-70
2022/04/14 03:16:38;;;;;;;14.13;10.85;;;14.20;67.90;;;;;;5032520;28;20037;-70
2022/04/14 03:19:04;;;;;;;16.05;9.80;;;14.20;67.80;;;;;;5015545;28;20105;-70
2022/04/14 03:21:29;;;;;;;14.43;9.80;;;14.20;67.90;;;;;;5026657;28;20017;-70
2022/04/14 03:23:55;;;;;;;16.48;10.50;;;14.20;68.20;;;;;;5030118;28;20541;-70
2022/04/14 03:26:20;;;;;;;15.07;10.55;;;14.20;68.20;;;;;;5039304;28;20108;-70
2022/04/14 03:28:46;;;;;;;14.20;9.85;;;14.10;68.20;;;;;;5042359;28;20045;-70
2022/04/14 03:31:11;;;;;;;13.18;9.15;;;14.20;68.10;;;;;;5044832;28;20513;-70
2022/04/14 03:33:37;;;;;;;15.18;10.65;;;14.20;68.30;;;;;;5016660;28;20021;-70
2022/04/14 03:36:03;;;;;;;18.55;10.80;;;14.20;68.20;;;;;;5038397;28;20024;-70
2022/04/14 03:38:28;;;;;;;15.70;10.63;;;14.10;68.40;;;;;;5034657;28;20036;-70
2022/04/14 03:40:54;;;;;;;15.60;10.57;;;14.10;68.60;;;;;;5032311;28;20495;-69
2022/04/14 03:43:20;;;;;;;14.13;9.68;;;14.00;69.10;;;;;;5032669;28;20083;-70
2022/04/14 03:45:46;;;;;;;12.75;9.32;;;14.00;69.10;;;;;;5034308;28;20515;-69
2022/04/14 03:48:11;;;;;;;11.95;9.00;;;13.90;69.80;;;;;;5032733;28;20029;-70
2022/04/14 03:50:37;;;;;;;12.75;8.50;;;13.80;72.20;;;;;;5034224;28;20034;-70
2022/04/14 03:53:02;;;;;;;12.15;8.73;;;13.70;72.00;;;;;;5031886;28;20021;-70
2022/04/14 03:55:28;;;;;;;11.07;8.13;;;13.70;72.90;;;;;;5034102;28;20108;-70
2022/04/14 03:57:53;;;;;;;13.32;8.73;;;13.60;72.70;;;;;;5031967;28;20022;-69
2022/04/14 04:00:19;;;;;;;9.45;7.07;;;13.60;74.50;;;;;;5038661;28;20071;-69
2022/04/14 04:02:44;;;;;;;12.88;8.45;;;13.50;74.70;;;;;;5020734;28;20488;-70
2022/04/14 04:05:10;;;;;;;11.43;8.20;;;13.50;75.70;;;;;;5029503;28;20029;-70
2022/04/14 04:07:35;;;;;;;11.63;7.80;;;13.40;75.80;;;;;;5032261;28;20034;-70
2022/04/14 04:10:01;;;;;;;15.13;7.70;;;13.40;76.40;;;;;;5034941;28;20044;-70
2022/04/14 04:12:27;;;;;;;11.77;7.85;;;13.30;76.30;;;;;;5032006;28;20033;-71
2022/04/14 04:14:52;;;;;;;15.30;9.43;;;13.30;77.90;;;;;;5033893;28;20075;-70
2022/04/14 04:17:18;;;;;;;11.40;8.05;;;13.30;78.00;;;;;;5031591;28;20029;-69
2022/04/14 04:19:44;;;;;;;11.00;8.18;;;13.20;79.40;;;;;;5025317;28;20084;-75
2022/04/14 04:22:10;;;;;;;10.68;6.82;;;13.20;78.90;;;;;;5032726;28;20036;-76
2022/04/14 04:24:37;;;;;;;15.20;8.40;;;13.20;79.10;;;;;;5038614;28;20037;-78
2022/04/14 04:27:03;;;;;;;11.02;7.80;;;13.20;79.30;;;;;;5030518;28;20099;-79
2022/04/14 04:29:28;;;;;;;11.93;6.78;;;13.20;80.20;;;;;;5038642;28;20041;-80
2022/04/14 04:31:54;;;;;;;12.40;7.28;;;13.10;79.90;;;;;;5017083;28;20025;-77
2022/04/14 04:34:19;;;;;;;13.32;6.97;;;13.20;79.90;;;;;;5038406;28;20066;-78
2022/04/14 04:36:45;;;;;;;10.25;6.43;;;13.20;79.70;;;;;;5016249;28;20411;-79
2022/04/14 04:39:11;;;;;;;10.65;7.85;;;13.30;79.90;;;;;;5019717;28;20148;-79
2022/04/14 04:41:37;;;;;;;13.48;7.60;;;13.30;80.10;;;;;;5031518;28;20424;-79
2022/04/14 04:44:04;;;;;;;12.23;7.50;;;13.30;80.30;;;;;;5034607;28;20590;-78
2022/04/14 04:46:30;;;;;;;12.57;7.30;;;13.30;80.90;;;;;;5038895;28;20044;-77
2022/04/14 04:48:55;;;;;;;9.30;7.07;;;13.40;80.70;;;;;;5032192;28;20029;-78
2022/04/14 04:51:21;;;;;;;11.88;7.07;;;13.40;80.90;;;;;;5018037;28;20505;-79
2022/04/14 04:53:46;;;;;;;10.68;6.80;;;13.50;80.80;;;;;;5013770;28;20026;-78
2022/04/14 04:56:12;;;;;;;12.27;6.80;;;13.50;81.00;;;;;;5013659;28;20366;-77
2022/04/14 04:58:38;;;;;;;10.38;6.68;;;13.40;81.40;;;;;;5013050;28;20034;-77
2022/04/14 05:01:04;;;;;;;12.52;7.07;;;13.50;81.70;;;;;;5012949;28;20484;-77
2022/04/14 05:03:29;;;;;;;11.32;7.15;;;13.50;82.10;;;;;;5014002;28;20033;-78
2022/04/14 05:05:55;;;;;;;12.38;8.05;;;13.50;82.10;;;;;;5013172;28;20168;-77
2022/04/14 05:08:20;;;;;;;12.05;7.35;;;13.50;82.00;;;;;;5013315;28;20109;-77
2022/04/14 05:10:46;;;;;;;10.45;7.60;;;13.60;82.50;;;;;;5016696;28;20044;-75
2022/04/14 05:13:15;;;;;;;10.93;7.50;;;13.60;82.70;;;;;;5008299;28;20076;-76
2022/04/14 05:15:40;;;;;;;12.98;7.38;;;13.70;82.40;;;;;;5009981;28;20384;-74
2022/04/14 05:18:06;;;;;;;12.70;7.70;;;13.70;82.70;;;;;;5010893;28;20033;-73
2022/04/14 05:20:31;;;;;;;10.00;6.72;;;13.70;82.70;;;;;;5015286;28;20026;-73
2022/04/14 05:22:57;;;;;;;10.73;7.32;;;13.70;83.00;;;;;;5016090;28;20030;-73
2022/04/14 05:25:22;;;;;;;9.80;6.93;;;13.80;83.10;;;;;;5011909;28;20113;-74
2022/04/14 05:27:48;;;;;;;10.80;8.38;;;13.80;82.90;;;;;;5010924;28;20042;-73
2022/04/14 05:30:14;;;;;;;11.85;7.60;;;13.90;83.10;;;;;;5010923;28;20065;-72
2022/04/14 05:32:40;;;;;;;12.10;6.90;;;13.90;83.40;;;;;;5013592;28;20017;-73
2022/04/14 05:35:10;;;;;;;11.55;7.50;;;13.90;83.90;;;;;;5001927;28;20038;-73
2022/04/14 05:37:36;;;;;;;11.75;7.90;;;13.90;83.80;;;;;;5011595;28;20169;-72
2022/04/14 05:40:03;;;;;;;15.32;8.02;;;13.90;84.00;;;;;;5026453;28;20061;-72
2022/04/14 05:42:29;;;;;;;13.23;8.45;;;14.00;84.10;;;;;;5010645;28;20476;-72
2022/04/14 05:45:01;;;;;;;15.02;7.90;;;14.00;84.50;;;;;;5027177;28;20032;-73
2022/04/14 05:47:27;;;;;;;16.75;8.73;;;14.00;84.10;;;;;;5010091;28;20445;-73
2022/04/14 05:49:53;;;;;;;13.63;7.90;;;14.10;84.30;;;;;;5011099;28;20104;-73
2022/04/14 05:52:19;;;;;;;11.77;7.07;;;14.10;84.60;;;;;;5010245;28;20531;-74
2022/04/14 05:54:48;;;;;;;12.00;7.30;;;14.20;84.70;;;;;;5011609;28;20022;-72
2022/04/14 05:57:14;;;;;;;11.68;6.95;;;14.20;84.80;;;;;;5009903;28;20034;-72
2022/04/14 05:59:40;;;;;;;16.30;7.60;;;14.30;85.00;;;;;;5017360;28;20037;-73
2022/04/14 06:02:05;;;;;;;14.02;7.57;;;14.30;84.80;;;;;;5009946;28;20068;-73
2022/04/14 06:04:31;;;;;;;11.48;6.90;;;14.40;84.80;;;;;;5010854;28;20201;-72
2022/04/14 06:06:57;;;;;;;11.20;7.00;;;14.50;85.00;;;;;;5010880;28;20088;-73
2022/04/14 06:09:22;;;;;;;13.75;6.90;;;14.50;84.70;;;;;;5011500;28;20029;-74
2022/04/14 06:11:48;;;;;;;9.20;7.07;;;14.60;84.60;;;;;;5009746;28;20037;-73
2022/04/14 06:14:13;;;;;;;9.02;7.43;;;14.70;84.50;;;;;;5011739;28;20056;-73
2022/04/14 06:16:39;;;;;;;13.63;6.90;;;14.70;84.40;;;;;;5010951;28;20141;-73
2022/04/14 06:19:04;;;;;;;10.15;6.93;;;14.80;84.30;;;;;;5004936;28;20484;-73
2022/04/14 06:21:30;;;;;;;11.80;7.93;;;14.90;84.40;;;;;;5028561;28;20021;-72
2022/04/14 06:23:56;;;;;;;12.20;8.40;;;14.80;84.20;;;;;;5008206;28;20033;-72
2022/04/14 06:26:22;;;;;;;17.02;7.07;;;14.90;84.30;;;;;;5006303;28;20485;-72
2022/04/14 06:28:47;;;;;;;15.77;8.73;;;15.00;84.20;;;;;;5010433;28;20065;-72
2022/04/14 06:31:13;;;;;;;16.65;8.18;;;15.10;84.00;;;;;;5023417;28;20389;-72
2022/04/14 06:33:39;;;;;;;13.30;7.35;;;15.10;84.00;;;;;;4997717;28;20038;-72
2022/04/14 06:36:05;;;;;;;13.25;7.68;;;15.20;84.00;;;;;;5022767;28;20450;-73
2022/04/14 06:38:30;;;;;;;11.93;8.80;;;15.20;83.90;;;;;;4997074;28;20022;-73
2022/04/14 06:40:55;;;;;;;12.30;7.50;;;15.20;83.80;;;;;;5011049;28;20266;-73
2022/04/14 06:43:21;;;;;;;10.98;7.40;;;15.30;83.70;;;;;;5010203;28;20117;-73
2022/04/14 06:45:47;;;;;;;11.60;7.57;;;15.30;83.60;;;;;;5011027;28;20546;-72
2022/04/14 06:48:13;;;;;;;11.40;7.25;;;15.30;83.60;;;;;;5010476;28;20022;-72
2022/04/14 06:50:40;;;;;;;10.43;7.60;;;15.40;83.60;;;;;;5024630;28;20095;-73
2022/04/14 06:53:05;;;;;;;11.02;7.63;;;15.40;83.40;;;;;;5011997;28;20053;-72
2022/04/14 06:55:32;;;;;;;12.63;7.80;;;15.50;83.90;;;;;;5012772;28;20069;-72
2022/04/14 06:57:58;;;;;;;12.10;7.28;;;15.50;83.50;;;;;;5014229;28;20022;-73
2022/04/14 07:00:24;;;;;;;10.93;7.07;;;15.60;83.30;;;;;;5021889;28;20056;-73
2022/04/14 07:02:51;;;;;;;11.57;7.20;;;15.70;83.20;;;;;;5013946;28;20026;-72
2022/04/14 07:05:17;;;;;;;11.05;7.13;;;15.70;83.00;;;;;;5014100;28;20476;-73
2022/04/14 07:07:44;;;;;;;9.55;7.40;;;15.80;83.00;;;;;;5014797;28;20022;-73
2022/04/14 07:10:11;;;;;;;10.52;7.35;;;15.80;82.90;;;;;;5010809;28;20567;-72
2022/04/14 07:12:37;;;;;;;13.20;7.97;;;15.80;82.80;;;;;;5016397;28;20061;-73
2022/04/14 07:15:02;;;;;;;13.75;8.00;;;15.90;82.80;;;;;;5012908;28;20064;-72
2022/04/14 07:17:28;;;;;;;10.02;7.13;;;15.90;82.80;;;;;;5014224;28;20036;-72
2022/04/14 07:19:54;;;;;;;9.38;6.95;;;16.00;82.80;;;;;;5015050;28;20026;-73
2022/04/14 07:22:19;;;;;;;10.57;6.68;;;16.00;82.70;;;;;;5013511;28;20036;-72
2022/04/14 07:24:49;;;;;;;11.10;7.38;;;16.10;82.80;;;;;;5013659;28;20034;-73
2022/04/14 07:27:17;;;;;;;13.27;7.63;;;16.20;82.50;;;;;;5014129;28;20028;-72
2022/04/14 07:29:44;;;;;;;10.02;6.95;;;16.30;82.30;;;;;;5014063;28;20041;-73
2022/04/14 07:32:09;;;;;;;11.60;6.90;;;16.40;82.50;;;;;;5001226;28;20104;-72
2022/04/14 07:34:35;;;;;;;12.10;7.60;;;16.40;82.70;;;;;;5021645;28;20101;-72
2022/04/14 07:37:00;;;;;;;10.55;6.53;;;16.50;82.50;;;;;;5027643;28;20030;-73
2022/04/14 07:39:25;;;;;;;15.40;8.82;;;16.40;82.20;;;;;;5011645;28;20109;-72
2022/04/14 07:41:51;;;;;;;13.93;8.18;;;16.60;82.10;;;;;;5001694;28;20026;-72
2022/04/14 07:44:16;;;;;;;9.63;6.35;;;16.70;82.50;;;;;;5013782;28;20022;-73
2022/04/14 07:46:42;;;;;;;10.77;6.70;;;16.70;81.70;;;;;;5013222;28;20021;-73
2022/04/14 07:49:07;;;;;;;9.98;6.25;;;16.80;81.60;;;;;;5018361;28;20033;-72
2022/04/14 07:51:33;;;;;;;9.82;6.90;;;16.80;81.50;;;;;;5013220;28;20539;-71
2022/04/14 07:53:59;;;;;;;12.38;6.93;;;16.80;81.50;;;;;;5005004;28;20023;-70
2022/04/14 07:56:24;;;;;;;14.25;7.72;;;16.90;81.30;;;;;;4995301;28;20501;-72
2022/04/14 07:58:50;;;;;;;13.10;6.80;;;16.90;81.30;;;;;;5011563;28;20555;-72
2022/04/14 08:01:18;;;;;;;8.63;6.25;;;17.00;81.30;;;;;;5011303;28;20646;-72
2022/04/14 08:03:46;;;;;;;12.55;7.80;;;17.00;81.10;;;;;;5014963;28;20030;-71
2022/04/14 08:06:13;;;;;;;8.68;6.70;;;17.10;81.00;;;;;;5011697;28;20041;-71
2022/04/14 08:08:38;;;;;;;10.70;6.18;;;17.10;80.70;;;;;;5017252;28;20025;-70
2022/04/14 08:11:04;;;;;;;10.88;6.18;;;17.20;80.80;;;;;;5014162;28;20153;-71
2022/04/14 08:13:30;;;;;;;13.13;6.72;;;17.30;81.00;;;;;;5014100;28;20026;-72
2022/04/14 08:16:01;;;;;;;11.70;6.18;;;17.40;80.60;;;;;;5014046;28;20105;-70
2022/04/14 08:18:26;;;;;;;10.18;6.68;;;17.40;80.40;;;;;;5012714;28;20037;-72
2022/04/14 08:20:52;;;;;;;11.68;6.45;;;17.60;80.30;;;;;;5026160;28;20337;-71
2022/04/14 08:23:17;;;;;;;9.93;5.60;;;17.70;80.10;;;;;;5013710;28;20022;-71
2022/04/14 08:25:44;;;;;;;9.77;6.45;;;17.80;80.10;;;;;;5012589;28;20495;-70
2022/04/14 08:28:10;;;;;;;10.65;5.55;;;17.90;79.80;;;;;;5013700;28;20026;-70
2022/04/14 08:30:36;;;;;;;10.93;5.43;;;17.90;79.50;;;;;;5010063;28;20038;-70
2022/04/14 08:33:07;;;;;;;8.10;5.75;;;17.80;79.40;;;;;;5008720;28;20092;-71
2022/04/14 08:35:34;;;;;;;8.68;5.50;;;17.90;79.70;;;;;;5017581;28;20030;-70
2022/04/14 08:38:07;;;;;;;8.60;5.13;;;17.90;79.60;;;;;;5019100;28;20018;-72
2022/04/14 08:40:40;;;;;;;7.00;4.90;;;18.00;79.50;;;;;;5018535;28;20201;-70
2022/04/14 08:43:08;;;;;;;5.63;4.05;;;18.10;79.30;;;;;;5006425;28;20088;-71
2022/04/14 08:45:46;;;;;;;7.88;4.75;;;18.20;79.40;;;;;;5013352;28;20038;-70
2022/04/14 08:48:13;;;;;;;8.25;5.10;;;18.20;79.10;;;;;;5009853;28;20030;-70
2022/04/14 08:50:39;;;;;;;11.00;5.55;;;18.20;79.20;;;;;;4993760;28;20042;-70
2022/04/14 08:53:05;;;;;;;7.60;4.35;;;18.20;79.50;;;;;;5012684;28;20029;-71
2022/04/14 08:55:31;;;;;;;6.32;4.97;;;18.30;79.50;;;;;;5012728;28;20058;-71
2022/04/14 08:57:57;;;;;;;5.72;4.45;;;18.30;79.30;;;;;;5007632;28;20385;-71
2022/04/14 09:00:22;;;;;;;8.25;4.63;;;18.30;79.40;;;;;;5008721;28;20057;-71
2022/04/14 09:02:50;;;;;;;7.35;3.10;;;18.40;79.50;;;;;;5019955;28;20033;-71
2022/04/14 09:05:17;;;;;;;5.25;3.13;;;18.40;79.60;;;;;;5016350;28;20042;-71
2022/04/14 09:07:50;;;;;;;5.22;3.42;;;18.50;79.60;;;;;;5013025;28;20040;-71
2022/04/14 09:10:16;;;;;;;7.35;3.13;;;18.60;79.40;;;;;;5010614;28;20033;-71
2022/04/14 09:12:41;;;;;;;4.80;3.50;;;18.70;79.30;;;;;;5012209;28;20076;-69
2022/04/14 09:15:07;;;;;;;4.75;3.08;;;18.80;79.50;;;;;;5012338;28;20505;-70
2022/04/14 09:17:32;;;;;;;8.73;2.70;;;18.90;79.10;;;;;;5011802;28;20385;-69
2022/04/14 09:19:58;;;;;;;3.58;2.47;;;19.00;78.90;;;;;;5017853;28;20111;-69
2022/04/14 09:22:24;;;;;;;4.55;2.80;;;19.00;78.50;;;;;;5013764;28;20030;-70
2022/04/14 09:24:51;;;;;;;6.85;2.70;;;19.20;78.50;;;;;;5016594;28;20091;-70
2022/04/14 09:27:31;;;;;;;5.30;3.10;;;19.30;78.50;;;;;;5019564;28;20468;-70
2022/04/14 09:30:05;;;;;;;4.40;3.33;;;19.40;78.20;;;;;;5011268;28;20033;-69
2022/04/14 09:32:34;;;;;;;4.75;3.40;;;19.40;77.70;;;;;;5012290;28;20022;-70
2022/04/14 09:35:21;;;;;;;8.30;3.10;;;19.60;77.50;;;;;;5012226;28;20060;-69
2022/04/14 09:38:03;;;;;;;6.45;2.97;;;19.60;77.10;;;;;;5012765;28;20507;-69
2022/04/14 09:40:35;;;;;;;5.55;2.92;;;19.60;76.70;;;;;;5011101;28;20145;-69
2022/04/14 09:43:05;;;;;;;7.20;2.95;;;19.60;76.70;;;;;;5017885;28;20412;-69
2022/04/14 09:45:33;;;;;;;5.32;3.00;;;19.70;76.70;;;;;;5013333;28;20141;-69
2022/04/14 09:48:06;;;;;;;9.05;4.00;;;19.70;76.90;;;;;;5011567;28;20053;-69
2022/04/14 09:50:40;;;;;;;4.85;3.33;;;19.80;76.60;;;;;;5019192;28;20088;-70
2022/04/14 09:53:07;;;;;;;6.90;3.30;;;19.90;76.50;;;;;;5011879;28;20050;-70
2022/04/14 09:55:51;;;;;;;7.65;3.25;;;19.90;76.20;;;;;;5028446;28;20049;-69
2022/04/14 09:58:24;;;;;;;6.72;3.00;;;20.00;76.10;;;;;;5011006;28;20033;-70
2022/04/14 10:00:59;;;;;;;8.63;2.90;;;20.00;76.20;;;;;;4994081;28;20050;-69
2022/04/14 10:03:29;;;;;;;5.78;3.30;;;20.00;76.60;;;;;;5012173;28;20056;-70
2022/04/14 10:05:57;;;;;;;7.35;2.97;;;20.00;76.50;;;;;;5029541;28;20025;-70
2022/04/14 10:08:24;;;;;;;4.28;2.88;;;20.00;76.00;;;;;;5002609;28;20489;-69
2022/04/14 10:11:05;;;;;;;5.82;3.20;;;19.90;76.30;;;;;;5030604;28;20052;-70
2022/04/14 10:13:35;;;;;;;5.97;2.70;;;20.00;76.40;;;;;;4989213;28;20425;-70
2022/04/14 10:16:02;;;;;;;3.17;2.38;;;20.00;76.30;;;;;;5028434;28;20026;-69
2022/04/14 10:18:27;;;;;;;3.42;2.10;;;20.10;76.20;;;;;;5031523;28;20033;-69
2022/04/14 10:20:53;;;;;;;5.97;3.47;;;20.10;76.10;;;;;;5017629;28;20485;-70
2022/04/14 10:23:20;;;;;;;3.78;2.20;;;20.10;76.10;;;;;;5012244;28;20544;-69
2022/04/14 10:25:46;;;;;;;3.38;2.20;;;20.10;76.20;;;;;;5010731;28;20088;-71
2022/04/14 10:28:15;;;;;;;3.47;2.03;;;20.00;76.30;;;;;;5021370;28;20030;-71
2022/04/14 10:30:52;;;;;;;4.05;2.35;;;20.10;76.10;;;;;;5000358;28;20034;-70
2022/04/14 10:33:18;;;;;;;7.22;2.85;;;20.00;76.00;;;;;;5010966;28;20036;-71
2022/04/14 10:35:44;;;;;;;3.85;2.40;;;20.00;76.30;;;;;;5009282;28;20128;-73
2022/04/14 10:38:15;;;;;;;4.35;2.67;;;19.90;76.50;;;;;;5006955;28;20481;-73
2022/04/14 10:40:47;;;;;;;4.38;2.70;;;20.00;76.60;;;;;;5011467;28;20025;-72
2022/04/14 10:43:17;;;;;;;6.43;2.97;;;20.00;77.00;;;;;;5011005;28;20117;-73
2022/04/14 10:45:48;;;;;;;4.55;2.67;;;20.00;76.70;;;;;;5011719;28;20044;-72
2022/04/14 10:48:28;;;;;;;5.25;3.20;;;20.00;76.70;;;;;;5006995;28;20515;-73
2022/04/14 10:51:27;;;;;;;5.70;3.35;;;20.00;77.00;;;;;;5010602;28;20053;-72
2022/04/14 10:53:59;;;;;;;4.60;2.83;;;19.90;77.10;;;;;;5009417;28;20034;-72
2022/04/14 10:56:33;;;;;;;4.60;3.00;;;20.00;77.20;;;;;;5007440;28;20041;-72
2022/04/14 10:58:59;;;;;;;;;;;20.00;77.30;;;;;;5011354;28;20025;-72
2022/04/14 11:01:50;;;;;;;5.80;2.75;;;19.90;77.50;;;;;;5007682;28;19917;-72
2022/04/14 11:04:43;;;;;;;6.82;2.95;;;19.80;77.80;;;;;;5008271;28;20017;-73
2022/04/14 11:07:15;;;;;;;5.18;2.72;;;19.80;77.90;;;;;;5001660;28;20045;-71
2022/04/14 11:09:58;;;;;;;3.25;2.10;;;19.80;78.20;;;;;;5010748;28;20057;-72
2022/04/14 11:12:32;;;;;;;3.95;2.08;;;19.80;78.10;;;;;;5009044;28;20069;-71
2022/04/14 11:15:00;;;;;;;3.33;1.90;;;19.80;78.10;;;;;;5016999;28;20355;-72
2022/04/14 11:17:37;;;;;;;2.97;1.98;;;19.90;78.00;;;;;;5011566;28;20113;-73
2022/04/14 11:20:36;;;;;;;2.83;1.63;;;19.90;78.00;;;;;;5019487;28;20076;-73
2022/04/14 11:23:15;;;;;;;3.30;1.70;;;19.90;77.70;;;;;;4994380;28;20060;-73
2022/04/14 11:25:41;;;;;;;3.20;1.75;;;19.80;77.80;;;;;;5019556;28;20022;-73
2022/04/14 11:28:30;;;;;;;3.30;1.95;;;19.80;78.00;;;;;;5014365;28;20052;-73
2022/04/14 11:31:05;;;;;;;2.60;1.42;;;19.70;78.00;;;;;;4999249;28;20484;-72
2022/04/14 11:33:30;;;;;;;4.53;1.70;;;19.60;77.90;;;;;;5021110;28;20033;-73
2022/04/14 11:36:16;;;;;;;5.32;2.95;;;19.60;78.10;;;;;;5014204;28;20528;-72
2022/04/14 11:39:03;;;;;;;4.60;1.98;;;19.50;78.30;;;;;;5002957;28;20050;-73
2022/04/14 11:41:46;;;;;;;2.88;1.90;;;19.50;78.60;;;;;;5004825;28;20037;-73
2022/04/14 11:44:16;;;;;;;3.58;1.80;;;19.40;78.70;;;;;;5032636;28;20033;-73
2022/04/14 11:47:03;;;;;;;3.65;1.92;;;19.40;78.50;;;;;;5016635;28;20534;-73
2022/04/14 11:49:31;;;;;;;4.50;2.15;;;19.40;78.70;;;;;;5009380;28;20034;-73
2022/04/14 11:52:02;;;;;;;4.93;2.30;;;19.40;78.90;;;;;;5010448;28;20033;-73
2022/04/14 11:54:31;;;;;;;5.28;2.20;;;19.40;78.90;;;;;;5019451;28;20229;-73
2022/04/14 11:57:06;;;;;;;3.13;2.00;;;19.30;79.10;;;;;;5013783;28;20381;-73
2022/04/14 11:59:39;;;;;;;3.03;1.70;;;19.30;79.10;;;;;;5013788;28;20389;-73
2022/04/14 12:02:18;;;;;;;2.17;1.58;;;19.20;79.10;;;;;;5017043;28;20040;-73
2022/04/14 12:04:45;;;;;;;8.07;3.05;;;19.20;79.00;;;;;;5024124;28;20354;-72
2022/04/14 12:07:12;;;;;;;6.32;2.55;;;19.10;79.40;;;;;;5027390;28;20030;-76
2022/04/14 12:09:40;;;;;;;5.32;2.47;;;18.90;79.80;;;;;;5028272;28;20066;-72
2022/04/14 12:12:18;;;;;;;3.33;1.60;;;18.80;80.00;;;;;;5018741;28;20052;-73
2022/04/14 12:14:52;;;;;;;3.88;1.88;;;18.80;80.00;;;;;;5021007;28;20894;-73
2022/04/14 12:17:22;;;;;;;2.60;1.60;;;18.70;79.90;;;;;;5031193;28;20033;-72
2022/04/14 12:19:59;;;;;;;3.10;1.52;;;18.60;80.20;;;;;;5008465;28;20400;-73
2022/04/14 12:22:28;;;;;;;4.55;1.77;;;18.50;80.40;;;;;;5003980;28;20033;-67
2022/04/14 12:24:57;;;;;;;5.70;2.00;;;18.40;81.30;;;;;;5020090;28;20492;-66
2022/04/14 12:27:28;;;;;;;3.75;2.30;;;18.20;81.40;;;;;;5004978;28;20029;-67
2022/04/14 12:29:56;;;;;;;2.63;1.77;;;18.10;81.80;;;;;;5017378;28;20501;-68
2022/04/14 12:32:26;;;;;;;4.00;2.10;;;18.00;82.10;;;;;;5020892;28;20042;-67
2022/04/14 12:34:52;;;;;;;5.72;2.10;;;18.00;82.40;;;;;;5012502;28;20053;-67
2022/04/14 12:37:18;;;;;;;4.20;2.13;;;18.00;83.10;;;;;;5020555;28;20060;-67
2022/04/14 12:39:54;;;;;;;5.18;1.80;;;17.80;83.00;;;;;;5017135;28;20029;-67
2022/04/14 12:42:23;;;;;;;3.42;2.30;;;17.80;83.20;;;;;;5009325;28;20603;-68
2022/04/14 12:44:48;;;;;;;4.60;2.25;;;17.70;83.30;;;;;;5011209;28;20833;-68